Terminal Aerodrome Forecast
Issued by NWS Quad Cities IA IL

Home | Current Version | Previous Version | Text Only | Print | Product List | Glossary On
Versions: 1 2 3 4 5 6 7 8 9 10 11 12 13 14 15 16 17 18 19 20 21 22 23 24 25 26 27
000
FTUS43 KDVN 210500
TAFDBQ
TAF
KDBQ 210537Z 2106/2206 16009KT 2SM -FZDZ BR OVC004
      TEMPO 2108/2112 1SM BR OVC002
     FM211500 17013KT 3SM BR OVC007
     FM211800 18015G22KT 5SM BR OVC015=

USA.gov is the U.S. government's official web portal to all federal, state and local government web resources and services.